McKnight, Ryan
United StatesManBorn 19722007 – 2026Runner id 57079
Events
141
140 race dates
Best pace
13.281
km/h · 2009
Best finish
1st
of 78 · 2019
Distance raced
11,976
km · splits not double-counted
Pace over time
140 of 141 results · km/h
Pace over time: 140 races from 2007 to 2026, ranging from 3.15 to 13.75 kilometres per hour, where higher is faster. A second, age-graded series is drawn above it; the gap between the two is the age credit.
- Actual pace
- Age-graded pace
1 result is not on this chart. They are counted in every statistic above and listed in full below — backyard ultras carry a lap count instead of a pace, which is the number that means something in that format.
Results
| Date | Event | Distance | Result | Pace km/h | Placing |
|---|---|---|---|---|---|
| 2007-10-06 | Baker Lake 50K Ultra Trail RunUnited States | 50km | 5:02:05 h | 9.931 | 4/77 |
| 2008-01-12 | Bridle Trails Winter Running FestivalUnited States | 50km | 4:27:40 h | 11.208 | 4/44 |
| 2008-04-13 | 50mi | 7:16:21 h | 11.065 | 6/50 | |
| 2008-04-26 | 50mi | 9:26:27 h | 8.523 | 11/37 | |
| 2008-05-17 | Watershed Preserve 12 Hr Trail RaceUnited States | 12h | 97.477 km | 8.123 | 7/53 |
| 2008-05-31 | The 20th Century 100K Trail RunUnited States | 100km | 9:50:40 h | 10.158 | 1/15 |
| 2008-06-07 | Blanchard Mountain Trail UltraUnited States | 50km | 7:27:00 h | 6.711 | 4/9 |
| 2008-07-26 | 50mi | 9:44:06 h | 8.266 | 75/202 | |
| 2008-09-13 | Cle Elum Ridge 50kUnited States | 50km | 5:29:00 h | 9.119 | 14/80 |
| 2008-10-20 | Baker Lake 50K Ultra Trail RunUnited States | 50km | 4:58:42 h | 10.044 | 10/86 |
| 2008-10-25 | 12h | 80.756 km | 6.730 | 5/18 | |
| 2009-01-10 | Bridle Trails Winter Running FestivalUnited States | 50km | 4:25:05 h | 11.317 | 6/50 |
| 2009-01-24 | Pigtails Run 50KUnited States | 50km | 3:51:00 h | 12.987 | 1/49 |
| 2009-03-21 | Pacific Rim One DayUnited States | 24h | 164.153 km | 6.840 | 9/49 |
| 2009-03-28 | 50km | 5:13:00 h | 9.585 | 9/19 | |
| 2009-04-19 | 50km | 4:00:45 h | 12.461 | 1/66 | |
| 2009-04-25 | 50mi | 9:30:00 h | 8.470 | 16/43 | |
| 2009-05-16 | Watershed Preserve 12 Hr Trail RaceUnited States | 12h | 106.120 km | 8.843 | 5/66 |
| 2009-06-13 | Lake Youngs UltraUnited States | 28.8mi | 3:29:24 h | 13.281 | 1/58 |
| 2009-07-25 | 50mi | 10:03:10 h | 8.004 | 62/166 | |
| 2010-01-23 | Pigtails Run 50KUnited States | 50km | 5:16:40 h | 9.474 | 26/80 |
| 2010-02-10 | Woolley Trail Runs 50kUnited States | 50km | 4:41:10 h | 10.670 | 6/18 |
| 2010-03-20 | 24h | 100.000 km | 4.167 | 32/73 | |
| 2010-04-09 | 100km | 16:17:00 h | 6.141 | 4/5 | |
| 2010-04-25 | 50mi | 10:30:46 h | 7.654 | 58/88 | |
| 2010-05-15 | 12h | 77.860 km | 6.488 | 47/80 | |
| 2010-10-02 | Baker Lake 50K Ultra Trail RunUnited States | 50km | 6:19:00 h | 7.916 | 48/115 |
| 2010-10-16 | 50km | 5:37:15 h | 8.895 | 30/97 | |
| 2010-11-06 | Ron Herzog 50KUnited States | 50km | 5:36:27 h | 8.917 | 8/35 |
| 2010-11-27 | Ghost of Seattle MarathonUnited States | 50km | 4:39:54 h | 10.718 | 4/16 |
| 2011-01-22 | Pigtails Run 50KUnited States | 50km | 5:02:42 h | 9.911 | 26/84 |
| 2011-02-19 | 50km | 4:24:56 h | 11.324 | 7/25 | |
| 2011-03-19 | 24h | 75.639 km | 3.152 | 47/67 | |
| 2011-04-30 | 55km | 6:57:09 h | 7.911 | 23/49 | |
| 2011-05-14 | 12h | 84.804 km | 7.067 | 22/68 | |
| 2011-06-11 | 28.8mi | 4:16:20 h | 10.849 | 7/53 | |
| 2012-02-18 | 50km | 4:19:26 h | 11.564 | 4/24 | |
| 2012-03-17 | 24h | 168.981 km | 7.041 | 3/65 | |
| 2012-04-15 | 50km | 6:22:09 h | 7.850 | 4/7 | |
| 2012-04-28 | 55km | 5:55:03 h | 9.294 | 8/66 | |
| 2012-05-19 | 12h | 95.772 km | 7.981 | 12/60 | |
| 2012-05-24 | Pigtails Challenge 100 MileUnited States | 100mi | 23:19:00 h | 6.902 | 9/36 |
| 2012-06-09 | 28.8mi | 3:52:09 h | 11.979 | 1/43 | |
| 2012-10-06 | 50km | 6:00:00 h | 8.333 | 33/116 | |
| 2012-11-10 | Ron Herzog 50KUnited States | 50km | 5:26:53 h | 9.178 | 2/9 |
| 2012-12-15 | 50km | 4:11:23 h | 11.934 | 6/43 | |
| 2013-01-13 | Bridle Trails Winter Running FestivalUnited States | 50km | 4:44:46 h | 10.535 | 12/55 |
| 2013-02-16 | Woolley Trail Runs 50kUnited States | 50km | 4:07:08 h | 12.139 | 2/17 |
| 2013-03-16 | 24h | 181.051 km | 7.544 | 2/51 | |
| 2013-03-29 | 100mi | 21:59:00 h | 7.321 | 17/43 | |
| 2013-04-27 | 50mi | 8:54:38 h | 9.031 | 25/87 | |
| 2013-05-18 | 12h | 69.201 km | 5.767 | 30/64 | |
| 2013-06-08 | 28.8mi | 3:47:00 h | 12.251 | 2/29 | |
| 2013-07-27 | 50mi | 9:48:10 h | 8.209 | 73/286 | |
| 2013-10-05 | 100km | 13:27:33 h | 7.430 | 9/30 | |
| 2014-01-18 | 34mi | 5:47:00 h | 9.461 | 10/56 | |
| 2014-03-15 | 24h | 186.683 km | 7.778 | 3/41 | |
| 2014-03-28 | 100mi | 27:28:00 h | 5.859 | 18/42 | |
| 2014-04-26 | 50mi | 8:55:04 h | 9.023 | 18/76 | |
| 2014-05-23 | 150mi | 35:18:00 h | 6.839 | 1/5 | |
| 2014-07-26 | 50mi | 8:52:12 h | 9.072 | 30/248 | |
| 2015-01-17 | 50km | 5:36:16 h | 8.921 | 7/78 | |
| 2015-01-31 | Lake Youngs Nuts RunUnited States | 50km | 5:42:32 h | 8.758 | 23/47 |
| 2015-03-21 | Pacific Rim One DayUnited States | 24h | 128.747 km | 5.364 | 7/43 |
| 2015-04-11 | Lumberjack Endurance 100 Mile RunUnited States | 100mi | 24:51:50 h | 6.473 | 1/13 |
| 2015-07-25 | 50mi | 10:07:47 h | 7.944 | 102/276 | |
| 2016-01-09 | 50km | 4:25:03 h | 11.319 | 4/73 | |
| 2016-01-30 | Lake Youngs Nuts RunUnited States | 50km | 4:19:51 h | 11.545 | 3/37 |
| 2016-02-13 | 100km | 17:09:01 h | 5.831 | 153/182 | |
| 2016-03-19 | 24h | 141.622 km | 5.901 | 5/46 | |
| 2016-04-09 | 50mi | 10:36:35 h | 7.584 | 150/304 | |
| 2016-05-21 | 50mi | 8:32:13 h | 9.426 | 26/86 | |
| 2016-06-18 | 24h | 162.833 km | 6.785 | 6/24 | |
| 2016-07-30 | 50mi | 11:19:20 h | 7.107 | 136/262 | |
| 2017-01-28 | 50km | 6:11:04 h | 8.085 | 16/66 | |
| 2017-02-11 | 100km | 18:30:32 h | 5.403 | 2/21 | |
| 2017-03-17 | 24h | 201.168 km | 8.382 | 1/51 | |
| 2017-03-24 | 50mi | 9:22:16 h | 8.587 | 14/71 | |
| 2017-04-08 | 100km | 13:27:00 h | 7.435 | 2/5 | |
| 2017-04-23 | 50mi | 6:49:35 h | 11.788 | 1/29 | |
| 2017-05-13 | 50km | 6:00:41 h | 8.318 | 6/44 | |
| 2017-10-07 | 50km | 5:24:01 h | 9.259 | 34/159 | |
| 2018-01-13 | Bridle Trails Winter Running FestivalUnited States | 50km | 5:47:36 h | 8.631 | 31/62 |
| 2018-02-17 | Woolley Trail Runs 50kUnited States | 50km | 4:41:35 h | 10.654 | 3/24 |
| 2018-05-06 | 50km | 9:15:36 h | 5.400 | 14/21 | |
| 2018-06-09 | 50mi | 12:16:38 h | 6.554 | 17/21 | |
| 2018-06-16 | 100km | 14:51:46 h | 6.728 | 7/7 | |
| 2018-07-14 | 100km | 19:19:53 h | 5.173 | 77/83 | |
| 2018-10-18 | 24h | 168.981 km | 7.041 | 1/26 | |
| 2019-01-12 | 50km | 4:25:40 h | 11.292 | 11/77 | |
| 2019-03-16 | 24h | 186.683 km | 7.778 | 1/78 | |
| 2019-05-05 | 50km | 7:04:26 h | 7.068 | 14/37 | |
| 2019-07-27 | 50mi | 10:49:32 h | 7.433 | 93/187 | |
| 2019-08-24 | 100mi | 29:14:15 h | 5.504 | 67/128 | |
| 2019-10-05 | 50km | 5:12:27 h | 9.602 | 22/140 | |
| 2020-01-11 | 50km | 4:45:21 h | 10.513 | 9/52 | |
| 2020-01-25 | 50mi | 9:28:51 h | 8.487 | 29/94 | |
| 2020-02-15 | Woolley Trail Runs 50kUnited States | 50km | 4:40:28 h | 10.696 | 5/23 |
| 2021-07-17 | 50mi | 12:04:21 h | 6.665 | 23/41 | |
| 2021-09-18 | 100mi | 29:50:00 h | 5.394 | 4/21 | |
| 2022-01-08 | 50km | 4:02:27 h | 12.374 | 4/44 | |
| 2022-01-22 | 50km | 4:34:00 h | 10.949 | 6/57 | |
| 2022-02-05 | 50mi | 9:11:57 h | 8.747 | 4/34 | |
| 2022-03-19 | 24h | 212.433 km | 8.851 | 1/78 | |
| 2022-04-02 | American River 50 Mile Endurance RunUnited States | 50mi | 8:04:00 h | 9.975 | 4/151 |
| 2022-04-24 | 50mi | 7:13:46 h | 11.130 | 1/25 | |
| 2022-05-14 | 50mi | 8:14:00 h | 9.773 | 4/69 | |
| 2022-06-25 | 24h | 114.424 km | 4.768 | 1/14 | |
| 2022-09-17 | 100mi | 31:35:00 h | 5.096 | 16/33 | |
| 2023-01-21 | 50km | 4:44:39 h | 10.539 | 6/67 | |
| 2023-02-03 | Orcas Island 100 Mile RaceUnited States | 100mi | 30:51:54 h | 5.214 | 9/34 |
| 2023-02-18 | Woolley Trail Runs 50kUnited States | 50km | 4:23:05 h | 11.403 | 1/23 |
| 2023-03-25 | 24h | 189.902 km | 7.913 | 1/63 | |
| 2023-04-22 | 50km | 5:57:00 h | 8.403 | 3/8 | |
| 2023-05-06 | Ultra X 125km ScotlandGreat Britain | 125km | 17:15:19 h | 7.244 | 57/89 |
| 2023-05-27 | 100km | 10:04:20 h | 9.928 | 1/27 | |
| 2023-07-29 | White River 50 Mile Endurance RunUnited States | 50mi | 11:11:57 h | 7.185 | 21/60 |
| 2023-09-09 | 100km | 17:11:00 h | 5.820 | 6/13 | |
| 2023-10-07 | 50km | 5:22:53 h | 9.291 | 15/92 | |
| 2023-12-02 | 50mi | 9:35:57 h | 8.383 | 21/76 | |
| 2024-01-20 | 50km | 5:22:28 h | 9.303 | 11/54 | |
| 2024-02-17 | 50km | 5:45:30 h | 8.683 | 9/35 | |
| 2024-03-22 | 50mi | 11:31:47 h | 6.979 | 1/24 | |
| 2024-04-13 | 12h | 86.840 km | 7.237 | 1/17 | |
| 2024-05-25 | 100km | 10:56:10 h | 9.144 | 2/17 | |
| 2024-07-13 | 50mi | 15:51:54 h | 5.072 | 18/48 | |
| 2024-08-17 | 100km | 17:44:28 h | 5.637 | 17/27 | |
| 2024-10-12 | 100mi | 26:37:03 h | 6.046 | 1/9 | |
| 2024-11-09 | 50km | 4:09:44 h | 12.013 | 3/67 | |
| 2024-12-14 | Deception Pass 50 kmUnited States | 50km | 5:26:26 h | 9.190 | 39/210 |
| 2025-01-18 | 50km | 5:02:01 h | 9.933 | 8/78 | |
| 2025-02-15 | Woolley Trail Runs 50kUnited States | 50km | 4:24:17 h | 11.351 | 1/14 |
| 2025-03-21 | 50mi | 9:58:41 h | 8.064 | 24/129 | |
| 2025-05-10 | Sun Mountain 50 Mile Trail RacesUnited States | 50mi | 11:16:46 h | 7.134 | 26/60 |
| 2025-08-16 | 53km | 6:18:18 h | 8.406 | 6/57 | |
| 2025-10-18 | 100mi | 28:36:34 h | 5.625 | 4/7 | |
| 2026-01-17 | 100km | 15:50:18 h | 6.314 | 27/49 | |
| 2026-03-14 | 24h | 67.994 km | — | 4/6 | |
| 2026-04-11 | 50mi | 13:42:10 h | 5.872 | 8/16 | |
| 2026-05-09 | Jemez Mountain 50km Trail RunUnited States | 50km | 9:37:50 h | 5.192 | 153/203 |
| 2026-08-15 | 53km | 7:10:28 h | 7.387 | 15/93 |